Tiempo atmosférico en la estación meteorológica de Alberca de Zancara, Cuenca (805 m.)



Fecha
DESCASC
Temp. máxima en grados centígrados (hora)
DESCASC
Temp. mínima en grados centígrados (hora)
DESCASC
Temp. media en grados centígrados
DESCASC
Racha de viento máxima en m/sg (hora)
DESCASC
Velocidad máxima media en intervalos de 10 minutos(hora)
DESCASC
Precipitaciones diarias en mm
DESCASC
Precipitaciones de 00:00 a 06:00 en mm
DESCASC
Precipitaciones de 06:00 a 12:00 en mm
DESCASC
Precipitaciones de 12:00 a 18:00 en mm
DESCASC
Precipitaciones de 18:00 a 24:00 en mm
DESCASC
10-07-2020 33.1 (17:40) 15.5 (05:30) 24.3 9.72 (18:50) 4.72 (18:50) -- -- -- -- --
09-07-2020 32 (16:20) 16.8 (23:00) 24.4 12.22 (18:40) 6.39 (18:50) -- -- -- -- --
08-07-2020 32.5 (15:00) 18.9 (05:50) 25.7 12.78 (18:50) 6.11 (18:40) -- -- -- -- --
07-07-2020 38.2 (18:00) 19.1 (07:00) 28.7 9.44 (17:10) 5.83 (16:50) -- -- -- -- --
06-07-2020 37.6 (17:40) 17.6 (00:00) 27.6 8.61 (16:40) 4.72 (18:20) -- -- -- -- --
05-07-2020 36.4 (19:10) 17.9 (00:00) 27.2 7.5 (14:40) 4.17 (01:20) -- -- -- -- --
04-07-2020 35 (18:20) 16.4 (00:00) 25.7 7.22 (17:10) 3.61 (15:10) -- -- -- -- --
03-07-2020 32.7 (18:10) 15.1 (07:10) 23.9 8.89 (15:30) 4.72 (16:20) -- -- -- -- --
02-07-2020 33.2 (16:30) 15.4 (00:00) 24.3 14.44 (16:00) 7.22 (16:30) -- -- -- -- --
01-07-2020 34.9 (17:30) 15.9 (00:00) 25.4 12.5 (18:20) 7.22 (18:10) -- -- -- -- --
30-06-2020 36.7 (17:40) 16.9 (00:00) 26.8 8.33 (14:50) 4.17 (14:10) -- -- -- -- --
29-06-2020 36.3 (18:20) 17.3 (00:00) 26.8 9.17 (18:00) 5.28 (18:00) -- -- -- -- --
28-06-2020 34.4 (18:00) 15.7 (00:00) 25.1 9.72 (17:30) 4.72 (16:40) -- -- -- -- --
27-06-2020 32.3 (18:50) 14.2 (00:00) 23.2 9.72 (12:50) 4.17 (12:50) -- -- -- -- --
26-06-2020 32.4 (17:10) 17.2 (00:00) 24.8 11.11 (18:50) 6.39 (19:00) -- -- -- -- --
25-06-2020 34.4 (17:30) 16 (00:00) 25.2 11.11 (23:30) 5.56 (18:50) -- -- -- -- --
24-06-2020 31.6 (18:10) 17 (00:00) 24.3 10 (16:20) 5.83 (16:20) -- -- -- -- --
23-06-2020 35.1 (17:30) 16.1 (00:00) 25.6 8.61 (02:30) 5.28 (02:30) -- -- -- -- --
22-06-2020 34.5 (17:30) 16.1 (00:00) 25.3 8.33 (21:00) 4.17 (21:00) -- -- -- -- --
21-06-2020 33.8 (18:40) 12.9 (00:00) 23.3 10 (16:20) 4.72 (17:50) -- -- -- -- --
20-06-2020 31.8 (19:10) 13.3 (00:00) 22.5 9.72 (16:20) 5 (13:50) -- -- -- -- --
19-06-2020 29.9 (18:30) 15.2 (00:00) 22.5 10.83 (14:40) 4.72 (15:10) -- -- -- -- --
18-06-2020 28.3 (18:40) 12 (00:00) 20.1 9.17 (15:10) 5 (15:10) -- -- -- -- --
17-06-2020 25.8 (17:40) 9.5 (00:00) 17.6 10 (15:50) 5.28 (14:40) -- -- -- -- --
16-06-2020 26.8 (17:50) 10.1 (00:00) 18.4 11.11 (16:00) 6.39 (13:00) -- -- -- -- --
15-06-2020 27.4 (18:10) 10.4 (00:00) 18.9 11.39 (17:50) 6.39 (14:10) -- -- -- -- --
14-06-2020 26.3 (18:10) 10.2 (00:00) 18.2 12.5 (11:10) 5.56 (18:00) -- -- -- -- --
13-06-2020 22.8 (18:30) 7.3 (00:00) 15 10.83 (00:30) 5.28 (10:50) -- -- -- -- --
12-06-2020 19.7 (16:10) 10.3 (00:00) 15 14.17 (17:10) 7.78 (17:10) -- -- -- -- --

Gráficas

Temp. máximas Temp. mínimas Temp. medias Precipitaciones Rachas de viento máximas Velocidades máximas media en intervalos de 10 minutos

Datos horarios

Fecha y hora oficial Temperatura (ºC) Velocidad del viento (km/h) Dirección del viento Racha (km/h) Dirección de racha Precipitación (mm) Presión (hPa) Tendencia (hPa) Humedad (%)
2020-07-11 23:00:00 23.7 10 Sudeste 21 Este -- -- -- 61
2020-07-11 22:00:00 25.4 10 Sudeste 28 Este -- -- -- 54
2020-07-11 21:00:00 28.3 11 Sudeste 31 Sudeste -- -- -- 45
2020-07-11 20:00:00 31.3 14 Sudeste 33 Sudeste -- -- -- 37
2020-07-11 19:00:00 32.8 15 Sudeste 32 Sudeste -- -- -- 31
2020-07-11 18:00:00 33.3 15 Sudeste 31 Sudeste -- -- -- 30
2020-07-11 17:00:00 33.4 15 Sudeste 35 Sudeste -- -- -- 31
2020-07-11 16:00:00 32.9 17 Sudeste 36 Sudeste -- -- -- 31
2020-07-11 15:00:00 32.3 13 Sudeste 33 Este -- -- -- 34
2020-07-11 14:00:00 31.2 15 Sudeste 35 Sudeste -- -- -- 33
2020-07-11 13:00:00 30 14 Sudeste 31 Sur -- -- -- 33
2020-07-11 12:00:00 28.1 13 Sudeste 28 Sudeste -- -- -- 38
2020-07-11 11:00:00 26.3 12 Sudeste 29 Sudeste -- -- -- 42
2020-07-11 10:00:00 24.5 12 Sudeste 27 Sudeste -- -- -- 45
2020-07-11 09:00:00 22.2 6 Este 19 Este -- -- -- 48
2020-07-11 08:00:00 18.9 8 Este 18 Este -- -- -- 55
2020-07-11 07:00:00 17.6 8 Nordeste 20 Este -- -- -- 64
2020-07-11 06:00:00 18.5 10 Este 19 Este -- -- -- 61
2020-07-11 05:00:00 18.3 12 Este 19 Este -- -- -- 63
2020-07-11 04:00:00 18.6 13 Este 21 Este -- -- -- 60
2020-07-11 03:00:00 18.5 9 Nordeste 14 Este -- -- -- 66
2020-07-11 02:00:00 19.7 9 Nordeste 18 Este -- -- -- 62
2020-07-11 01:00:00 21.2 9 Este 20 Este -- -- -- 54
2020-07-11 00:00:00 22.6 8 Este 21 Este -- -- -- 50
2020-07-10 23:00:00 24 8 Sudeste 20 Este -- -- -- 49
2020-07-10 22:00:00 27 8 Sudeste 21 Sudeste -- -- -- 42
2020-07-10 21:00:00 30.3 6 Oeste 19 Noroeste -- -- -- 27
2020-07-10 20:00:00 31.8 11 Oeste 24 Sudoeste -- -- -- 24
2020-07-10 19:00:00 32.5 17 Oeste 35 Oeste -- -- -- 23
2020-07-10 18:00:00 32.8 10 Sudoeste 24 Noroeste -- -- -- 20
2020-07-10 17:00:00 32.6 6 Sudoeste 20 Sur -- -- -- 23
2020-07-10 16:00:00 31.5 7 Este 19 Este -- -- -- 29
2020-07-10 15:00:00 30.4 8 Sudeste 22 Sudeste -- -- -- 31
2020-07-10 14:00:00 28.9 8 Este 22 Sudeste -- -- -- 35
2020-07-10 13:00:00 27.1 9 Sudeste 19 Sudeste -- -- -- 41
2020-07-10 12:00:00 26 9 Sudeste 21 Sudeste -- -- -- 44
2020-07-10 11:00:00 24.4 8 Sudeste 22 Sudeste -- -- -- 51
2020-07-10 10:00:00 21.9 7 Este 15 Sudeste -- -- -- 61
2020-07-10 09:00:00 18.7 9 Este 17 Este -- -- -- 70
2020-07-10 08:00:00 16.7 5 Nordeste 14 Este -- -- -- 75
2020-07-10 07:00:00 16 5 Este 16 Nordeste -- -- -- 76
2020-07-10 06:00:00 15.5 6 Nordeste 12 Nordeste -- -- -- 77
2020-07-10 05:00:00 16 8 Este 14 Nordeste -- -- -- 74
2020-07-10 04:00:00 16.1 7 Este 18 Nordeste -- -- -- 73
2020-07-10 03:00:00 15.9 7 Nordeste 14 Este -- -- -- 75
2020-07-10 02:00:00 15.7 4 Este 13 Nordeste -- -- -- 78
2020-07-10 01:00:00 16.9 3 Este 9 Este -- -- -- 68
2020-07-10 00:00:00 16.9 4 Este 17 Norte -- -- -- 67
2020-07-09 23:00:00 16.8 10 Norte 20 Norte -- -- -- 68
2020-07-09 22:00:00 17.3 5 Nordeste 24 Este -- -- -- 69
2020-07-09 21:00:00 18.3 11 Este 30 Nordeste -- -- -- 66
2020-07-09 20:00:00 18.8 18 Nordeste 34 Nordeste -- -- -- 60
2020-07-09 19:00:00 16.9 21 Nordeste 44 Nordeste -- -- -- 74
2020-07-09 18:00:00 22.9 15 Noroeste 27 Oeste -- -- -- 56
2020-07-09 17:00:00 29.5 5 Este 25 Nordeste -- -- -- 32
2020-07-09 16:00:00 31.7 8 Sudeste 26 Sudeste -- -- -- 28
2020-07-09 15:00:00 30.3 6 Nordeste 17 Nordeste -- -- -- 31
2020-07-09 14:00:00 28.3 4 Este 13 Nordeste -- -- -- 34
2020-07-09 13:00:00 25.6 5 Sudeste 18 Sudeste -- -- -- 50
2020-07-09 12:00:00 26.8 3 Sur 9 Este -- -- -- 40
2020-07-09 11:00:00 24.7 4 Sur 12 Sudeste -- -- -- 50
2020-07-09 10:00:00 22.9 5 Este 13 Este -- -- -- 65
2020-07-09 09:00:00 19.6 8 Este 16 Este -- -- -- 77
2020-07-09 08:00:00 17.4 6 Nordeste 14 Este -- -- -- 86
2020-07-09 07:00:00 17 8 Nordeste 16 Este -- -- -- 88
2020-07-09 06:00:00 17.6 6 Nordeste 13 Este -- -- -- 86
2020-07-09 05:00:00 18.2 3 Este 13 Este -- -- -- 85
2020-07-09 04:00:00 19.4 8 Sudeste 20 Sudeste -- -- -- 79
2020-07-09 03:00:00 19.9 7 Sudeste 28 Sudeste -- -- -- 80
2020-07-09 02:00:00 20.4 10 Sudeste 31 Sudeste -- -- -- 79
2020-07-09 01:00:00 19.5 6 Este 21 Este -- -- -- 75
2020-07-09 00:00:00 20.5 8 Este 20 Nordeste -- -- -- 63
2020-07-08 23:00:00 20.8 7 Este 19 Oeste -- -- -- 62
2020-07-08 22:00:00 21.2 8 Este 18 Este -- -- -- 63
2020-07-08 21:00:00 22.8 11 Este 28 Este -- -- -- 55
2020-07-08 20:00:00 22.4 12 Este 32 Este -- -- -- 54
2020-07-08 19:00:00 23.8 15 Este 46 Sudeste -- -- -- 55
2020-07-08 18:00:00 24 14 Sudeste 30 Este -- -- -- 67
2020-07-08 17:00:00 25.4 10 Este 40 Sudeste -- -- -- 51
2020-07-08 16:00:00 28.4 22 Sudeste 41 Sudeste -- -- -- 39
2020-07-08 15:00:00 32.5 19 Sudeste 41 Sudeste -- -- -- 31
2020-07-08 14:00:00 30.2 14 Sudeste 29 Sudeste -- -- -- 35
2020-07-08 13:00:00 30.4 14 Sudeste 32 Sudeste -- -- -- 37
2020-07-08 12:00:00 27.9 15 Sudeste 39 Este -- -- -- 40
2020-07-08 11:00:00 24.9 17 Nordeste 31 Este -- -- -- 48
2020-07-08 10:00:00 23.6 9 Sudeste 27 Sudeste -- -- -- 51
2020-07-08 09:00:00 22.5 8 Este 27 Este -- -- -- 53
2020-07-08 08:00:00 20 17 Este 27 Este -- -- -- 58
2020-07-08 07:00:00 19.3 12 Este 23 Este -- -- -- 60
2020-07-08 06:00:00 18.9 8 Nordeste 15 Este -- -- -- 64
2020-07-08 05:00:00 19.8 6 Este 11 Este -- -- -- 59
2020-07-08 04:00:00 19.9 6 Este 17 Este -- -- -- 59
2020-07-08 03:00:00 20.5 10 Este 18 Este -- -- -- 59
2020-07-08 02:00:00 21.4 10 Nordeste 21 Este -- -- -- 56
2020-07-08 01:00:00 23 14 Este 27 Este -- -- -- 53
2020-07-08 00:00:00 25.9 9 Este 22 Este -- -- -- 54
2020-07-07 23:00:00 30 9 Norte 16 Noroeste -- -- -- 20
2020-07-07 22:00:00 30.4 0 Calma 5 Sudoeste -- -- -- 26
2020-07-07 21:00:00 35.2 4 Sudoeste 18 Oeste -- -- -- 19
2020-07-07 20:00:00 37.1 8 Noroeste 27 Oeste -- -- -- 17
2020-07-07 19:00:00 37.6 9 Oeste 30 Oeste -- -- -- 15
2020-07-07 18:00:00 38.2 15 Noroeste 34 Oeste -- -- -- 14
2020-07-07 17:00:00 37.9 16 Oeste 33 Oeste -- -- -- 15
2020-07-07 16:00:00 37.1 15 Oeste 28 Noroeste -- -- -- 18
2020-07-07 15:00:00 36.1 8 Sudoeste 27 Oeste -- -- -- 21
2020-07-07 14:00:00 34.4 4 Sudeste 18 Sur -- -- -- 25
2020-07-07 13:00:00 33.6 4 Este 15 Sudoeste -- -- -- 27
2020-07-07 12:00:00 31.7 6 Este 14 Sudeste -- -- -- 27
2020-07-07 11:00:00 29.7 6 Sudeste 17 Sudeste -- -- -- 29
2020-07-07 10:00:00 26.9 6 Este 15 Este -- -- -- 35
2020-07-07 09:00:00 24.6 5 Este 17 Este -- -- -- 39
2020-07-07 08:00:00 20.6 4 Este 10 Este -- -- -- 52
2020-07-07 07:00:00 19.1 3 Este 8 Este -- -- -- 55
2020-07-07 06:00:00 19.5 3 Nordeste 14 Este -- -- -- 52
2020-07-07 05:00:00 20.5 10 Este 16 Nordeste -- -- -- 48
2020-07-07 04:00:00 21.2 8 Este 14 Este -- -- -- 46
2020-07-07 03:00:00 22.3 8 Este 15 Este -- -- -- 45
2020-07-07 02:00:00 23.3 9 Este 25 Este -- -- -- 43
2020-07-07 01:00:00 24.7 12 Este 24 Este -- -- -- 41
2020-07-07 00:00:00 25.9 11 Este 27 Este -- -- -- 39
2020-07-06 23:00:00 26.9 4 Norte 6 Norte -- -- -- 28
2020-07-06 22:00:00 29.5 3 Noroeste 12 Oeste -- -- -- 23
2020-07-06 21:00:00 33.8 10 Oeste 22 Oeste -- -- -- 19
2020-07-06 20:00:00 36.3 10 Noroeste 26 Norte -- -- -- 18
2020-07-06 19:00:00 36.7 14 Noroeste 29 Oeste -- -- -- 16
2020-07-06 18:00:00 37.1 10 Oeste 28 Noroeste -- -- -- 15
2020-07-06 17:00:00 36.8 8 Norte 31 Noroeste -- -- -- 17
2020-07-06 16:00:00 36.5 11 Noroeste 23 Norte -- -- -- 17
2020-07-06 15:00:00 35 9 Norte 23 Norte -- -- -- 20
2020-07-06 14:00:00 34.6 7 Sudeste 17 Norte -- -- -- 21
2020-07-06 13:00:00 33.1 8 Este 18 Este -- -- -- 25
2020-07-06 12:00:00 31.1 2 Este 12 Nordeste -- -- -- 29
2020-07-06 11:00:00 28.9 4 Sudeste 11 Sudeste -- -- -- 34
2020-07-06 10:00:00 26.2 5 Este 13 Este -- -- -- 38
2020-07-06 09:00:00 22.5 7 Este 16 Este -- -- -- 47
2020-07-06 08:00:00 18.6 3 Este 11 Nordeste -- -- -- 54
2020-07-06 07:00:00 17.9 4 Nordeste 14 Nordeste -- -- -- 54
2020-07-06 06:00:00 18.7 4 Este 19 Este -- -- -- 53
2020-07-06 05:00:00 19.2 7 Nordeste 16 Este -- -- -- 54
2020-07-06 04:00:00 20.2 11 Este 17 Este -- -- -- 52
2020-07-06 03:00:00 20.4 11 Este 21 Este -- -- -- 51
2020-07-06 02:00:00 20.8 7 Nordeste 15 Nordeste -- -- -- 50
2020-07-06 01:00:00 23.1 4 Este 15 Este -- -- -- 51
2020-07-06 00:00:00 25.4 12 Este 23 Nordeste -- -- -- 35
2020-07-05 23:00:00 26.5 5 Norte 9 Norte -- -- -- 25
2020-07-05 22:00:00 28.7 6 Norte 13 Noroeste -- -- -- 23
2020-07-05 21:00:00 33.6 7 Noroeste 19 Oeste -- -- -- 18
2020-07-05 20:00:00 36.2 6 Noroeste 19 Norte -- -- -- 18
2020-07-05 19:00:00 36.2 9 Oeste 17 Oeste -- -- -- 17
2020-07-05 18:00:00 35 9 Oeste 21 Oeste -- -- -- 18
2020-07-05 17:00:00 35.7 10 Oeste 22 Oeste -- -- -- 18
2020-07-05 16:00:00 35.2 9 Oeste 20 Noroeste -- -- -- 20
2020-07-05 15:00:00 33.9 9 Sudoeste 27 Sudoeste -- -- -- 22
2020-07-05 14:00:00 33 9 Sudoeste 20 Sur -- -- -- 26
2020-07-05 13:00:00 31.5 7 Sur 19 Sudeste -- -- -- 34
2020-07-05 12:00:00 29 5 Este 21 Sudeste -- -- -- 41
2020-07-05 11:00:00 26.8 9 Sudeste 19 Este -- -- -- 51
2020-07-05 10:00:00 24.1 8 Sudeste 20 Sudeste -- -- -- 62
2020-07-05 09:00:00 21.7 10 Sudeste 22 Sudeste -- -- -- 71
2020-07-05 08:00:00 18.5 3 Sudeste 9 Este -- -- -- 85
2020-07-05 07:00:00 18 6 Este 17 Este -- -- -- 86
2020-07-05 06:00:00 17.9 8 Este 17 Este -- -- -- 88
2020-07-05 05:00:00 18.6 9 Este 18 Este -- -- -- 85
2020-07-05 04:00:00 19.2 8 Este 19 Este -- -- -- 83
2020-07-05 03:00:00 19.8 10 Este 21 Este -- -- -- 82
2020-07-05 02:00:00 20.5 11 Este 24 Nordeste -- -- -- 79
2020-07-05 01:00:00 21.5 12 Este 23 Este -- -- -- 75
2020-07-05 00:00:00 23.1 11 Este 21 Este -- -- -- 66
2020-07-04 23:00:00 23.7 2 Nordeste 8 Norte -- -- -- 25
2020-07-04 22:00:00 26.6 5 Norte 12 Nordeste -- -- -- 23
2020-07-04 21:00:00 31.9 7 Norte 16 Norte -- -- -- 19
2020-07-04 20:00:00 33.8 7 Norte 18 Oeste -- -- -- 19
2020-07-04 19:00:00 34.5 9 Oeste 21 Norte -- -- -- 17
2020-07-04 18:00:00 34.9 4 Este 26 Oeste -- -- -- 19
2020-07-04 17:00:00 34.5 8 Oeste 20 Sudoeste -- -- -- 19
2020-07-04 16:00:00 33.2 7 Sudoeste 22 Sudoeste -- -- -- 20
2020-07-04 15:00:00 32.7 9 Oeste 21 Oeste -- -- -- 23
2020-07-04 14:00:00 31.5 8 Sudoeste 21 Noroeste -- -- -- 27
2020-07-04 13:00:00 30 4 Este 13 Sudeste -- -- -- 33
2020-07-04 12:00:00 28 5 Sur 17 Nordeste -- -- -- 44
2020-07-04 11:00:00 25.9 6 Este 14 Este -- -- -- 53
2020-07-04 10:00:00 23.8 6 Este 16 Este -- -- -- 63
2020-07-04 09:00:00 20.8 6 Este 14 Este -- -- -- 79
2020-07-04 08:00:00 17.5 7 Este 14 Este -- -- -- 92
2020-07-04 07:00:00 16.4 8 Nordeste 12 Este -- -- -- 93
2020-07-04 06:00:00 16.8 6 Nordeste 13 Nordeste -- -- -- 91
2020-07-04 05:00:00 18.1 4 Este 11 Este -- -- -- 89
2020-07-04 04:00:00 18.3 6 Este 18 Este -- -- -- 88
2020-07-04 03:00:00 18.4 6 Este 23 Este -- -- -- 86
2020-07-04 02:00:00 19.8 7 Nordeste 21 Nordeste -- -- -- 80
2020-07-04 01:00:00 21.6 6 Sudeste 23 Sudeste -- -- -- 72
2020-07-04 00:00:00 22.3 8 Sudeste 21 Este -- -- -- 64
2020-07-03 23:00:00 22.5 4 Norte 10 Norte -- -- -- 30
2020-07-03 22:00:00 25 4 Noroeste 15 Oeste -- -- -- 25
2020-07-03 21:00:00 29.9 7 Oeste 18 Oeste -- -- -- 19
2020-07-03 20:00:00 32 7 Noroeste 28 Oeste -- -- -- 17
2020-07-03 19:00:00 32 13 Oeste 26 Oeste -- -- -- 17
2020-07-03 18:00:00 32.3 14 Oeste 25 Oeste -- -- -- 17
2020-07-03 17:00:00 31.8 6 Oeste 28 Sudoeste -- -- -- 18
2020-07-03 16:00:00 31.1 6 Oeste 32 Oeste -- -- -- 20
2020-07-03 15:00:00 29.9 9 Sudoeste 24 Oeste -- -- -- 24
2020-07-03 14:00:00 29.7 9 Oeste 22 Oeste -- -- -- 25
2020-07-03 13:00:00 27.8 11 Sudoeste 19 Oeste -- -- -- 29
2020-07-03 12:00:00 25.9 5 Este 19 Sudeste -- -- -- 45
2020-07-03 11:00:00 24.9 7 Sur 18 Sudeste -- -- -- 53
2020-07-03 10:00:00 23.1 8 Sudeste 17 Sudeste -- -- -- 58
2020-07-03 09:00:00 20.3 7 Este 15 Este -- -- -- 73
2020-07-03 08:00:00 17 8 Este 14 Este -- -- -- 70
2020-07-03 07:00:00 15.2 3 Nordeste 6 Nordeste -- -- -- 69
2020-07-03 06:00:00 16.1 3 Este 12 Este -- -- -- 51
2020-07-03 05:00:00 17 0 Calma 5 Noroeste -- -- -- 48
2020-07-03 04:00:00 18.2 0 Calma 9 Noroeste -- -- -- 47
2020-07-03 03:00:00 19.6 5 Noroeste 12 Noroeste -- -- -- 42
2020-07-03 02:00:00 20.4 9 Noroeste 17 Noroeste -- -- -- 40
2020-07-03 01:00:00 21.8 8 Noroeste 15 Noroeste -- -- -- 38
2020-07-03 00:00:00 22.6 6 Noroeste 13 Oeste -- -- -- 33
2020-07-02 23:00:00 23 10 Noroeste 14 Oeste -- -- -- 27
2020-07-02 22:00:00 25.4 9 Oeste 23 Oeste -- -- -- 22
2020-07-02 21:00:00 29.3 14 Oeste 38 Oeste -- -- -- 18
2020-07-02 20:00:00 31.1 21 Oeste 43 Oeste -- -- -- 17
2020-07-02 19:00:00 32.2 21 Oeste 39 Noroeste -- -- -- 17
2020-07-02 18:00:00 33 23 Oeste 42 Oeste -- -- -- 16
2020-07-02 17:00:00 33.1 26 Oeste 47 Oeste -- -- -- 16
2020-07-02 16:00:00 33 23 Oeste 52 Oeste -- -- -- 16
2020-07-02 15:00:00 32.3 22 Oeste 42 Oeste -- -- -- 17
2020-07-02 14:00:00 31.4 24 Oeste 51 Oeste -- -- -- 18
2020-07-02 13:00:00 30.7 21 Oeste 38 Oeste -- -- -- 24
2020-07-02 12:00:00 29.4 17 Oeste 33 Sudoeste -- -- -- 28
2020-07-02 11:00:00 27.9 13 Oeste 22 Oeste -- -- -- 31
2020-07-02 10:00:00 25.1 14 Oeste 21 Oeste -- -- -- 34
2020-07-02 09:00:00 22 13 Oeste 21 Oeste -- -- -- 37
2020-07-02 08:00:00 18.5 8 Oeste 13 Sudoeste -- -- -- 42
2020-07-02 07:00:00 15.6 0 Calma -- -- -- -- -- 48
2020-07-02 06:00:00 16.9 0 Calma 4 Sudoeste -- -- -- 43
2020-07-02 05:00:00 17.7 2 Sudoeste 4 Sur -- -- -- 40
2020-07-02 04:00:00 19.3 0 Calma 12 Sudoeste -- -- -- 36
2020-07-02 03:00:00 20.9 6 Oeste 17 Noroeste -- -- -- 31
2020-07-02 02:00:00 20.8 9 Oeste 21 Oeste -- -- -- 32
2020-07-02 01:00:00 24 8 Oeste 23 Sudoeste -- -- -- 27
2020-07-02 00:00:00 25.2 10 Noroeste 17 Noroeste -- -- -- 25
2020-07-01 23:00:00 26 8 Noroeste 15 Noroeste -- -- -- 23
2020-07-01 22:00:00 27.3 10 Noroeste 22 Oeste -- -- -- 21
2020-07-01 21:00:00 31.8 15 Oeste 33 Oeste -- -- -- 18
2020-07-01 20:00:00 33.5 18 Oeste 37 Oeste -- -- -- 17
2020-07-01 19:00:00 34 24 Oeste 45 Oeste -- -- -- 16
2020-07-01 18:00:00 34.7 23 Oeste 42 Oeste -- -- -- 17
2020-07-01 17:00:00 34.2 17 Oeste 38 Oeste -- -- -- 19
2020-07-01 16:00:00 33.8 18 Sudoeste 40 Oeste -- -- -- 18
2020-07-01 15:00:00 33.5 22 Oeste 39 Oeste -- -- -- 19
2020-07-01 14:00:00 31.9 18 Oeste 41 Oeste -- -- -- 25
2020-07-01 13:00:00 31.1 21 Oeste 40 Oeste -- -- -- 27
2020-07-01 12:00:00 29.9 15 Oeste 27 Oeste -- -- -- 29
2020-07-01 11:00:00 27.6 14 Oeste 24 Oeste -- -- -- 36
2020-07-01 10:00:00 25.2 14 Oeste 25 Oeste -- -- -- 43
2020-07-01 09:00:00 22.7 11 Sudoeste 18 Sudoeste -- -- -- 50
2020-07-01 08:00:00 19.2 4 Sudoeste 8 Oeste -- -- -- 57
2020-07-01 07:00:00 18.3 6 Oeste 11 Oeste -- -- -- 60
2020-07-01 06:00:00 16.2 0 Calma -- -- -- -- -- 71
2020-07-01 05:00:00 17.7 0 Calma -- -- -- -- -- 68
2020-07-01 04:00:00 18.9 0 Calma -- -- -- -- -- 67
2020-07-01 03:00:00 20.3 0 Calma 7 Este -- -- -- 65
2020-07-01 02:00:00 22.1 3 Sudeste 11 Nordeste -- -- -- 56
2020-07-01 01:00:00 23.1 5 Nordeste 13 Este -- -- -- 50
2020-07-01 00:00:00 23.9 4 Este 12 Este -- -- -- 37
2020-06-30 23:00:00 26.1 4 Nordeste 8 Norte -- -- -- 32
2020-06-30 22:00:00 29.6 4 Sur 24 Este -- -- -- 27
2020-06-30 21:00:00 32.4 9 Sudeste 27 Sudeste -- -- -- 23
2020-06-30 20:00:00 34.7 12 Sudeste 27 Sudeste -- -- -- 21
2020-06-30 19:00:00 36.1 12 Sudeste 23 Sudeste -- -- -- 19
2020-06-30 18:00:00 36.6 8 Sudeste 26 Sudeste -- -- -- 18
2020-06-30 17:00:00 36.2 8 Este 25 Sudeste -- -- -- 18
2020-06-30 16:00:00 36 9 Sudeste 25 Sudeste -- -- -- 19
2020-06-30 15:00:00 35 12 Sudeste 30 Sudeste -- -- -- 20
2020-06-30 14:00:00 34.1 13 Sudeste 28 Sur -- -- -- 21
2020-06-30 13:00:00 32 11 Sur 24 Sudeste -- -- -- 28
2020-06-30 12:00:00 30.3 11 Sudeste 22 Sur -- -- -- 32
2020-06-30 11:00:00 28.2 8 Sur 19 Sudeste -- -- -- 34
2020-06-30 10:00:00 26.1 7 Sudeste 14 Sudeste -- -- -- 39
2020-06-30 09:00:00 21.8 6 Este 15 Nordeste -- -- -- 54
2020-06-30 08:00:00 18.3 9 Este 17 Este -- -- -- 67
2020-06-30 07:00:00 16.9 8 Este 14 Este -- -- -- 73
2020-06-30 06:00:00 17.4 8 Este 15 Este -- -- -- 74
2020-06-30 05:00:00 18.1 7 Nordeste 17 Nordeste -- -- -- 71
2020-06-30 04:00:00 20.6 10 Este 23 Nordeste -- -- -- 58
2020-06-30 03:00:00 21.9 8 Este 21 Sudeste -- -- -- 54
2020-06-30 02:00:00 23.3 7 Sudeste 21 Este -- -- -- 49
2020-06-30 01:00:00 24.9 10 Este 27 Sudeste -- -- -- 39
2020-06-30 00:00:00 25.8 8 Sudeste 22 Este -- -- -- 42
2020-06-29 23:00:00 28.3 9 Sudeste 19 Sudeste -- -- -- 37
2020-06-29 22:00:00 30.5 8 Sudeste 14 Sur -- -- -- 31
2020-06-29 21:00:00 34.5 4 Noroeste 17 Oeste -- -- -- 19
2020-06-29 20:00:00 35.8 10 Oeste 32 Oeste -- -- -- 17
2020-06-29 19:00:00 36 16 Oeste 30 Oeste -- -- -- 18
2020-06-29 18:00:00 35.8 19 Oeste 33 Oeste -- -- -- 19
2020-06-29 17:00:00 35.9 11 Sudoeste 29 Oeste -- -- -- 20
2020-06-29 16:00:00 35.3 14 Oeste 31 Oeste -- -- -- 20
2020-06-29 15:00:00 34.5 6 Oeste 29 Oeste -- -- -- 22
2020-06-29 14:00:00 33.4 11 Sudoeste 22 Oeste -- -- -- 24
2020-06-29 13:00:00 32.8 5 Sudoeste 20 Oeste -- -- -- 25
2020-06-29 12:00:00 30.9 5 Sudoeste 9 Sudoeste -- -- -- 32
2020-06-29 11:00:00 28.1 5 Sudoeste 10 Sudoeste -- -- -- 37
2020-06-29 10:00:00 25.3 5 Sudeste 12 Sur -- -- -- 44
2020-06-29 09:00:00 22.5 4 Este 12 Este -- -- -- 55
2020-06-29 08:00:00 19 4 Nordeste 12 Nordeste -- -- -- 68
2020-06-29 07:00:00 17.3 4 Nordeste 9 Nordeste -- -- -- 75
2020-06-29 06:00:00 18 5 Nordeste 11 Nordeste -- -- -- 72
2020-06-29 05:00:00 18.8 6 Nordeste 14 Nordeste -- -- -- 70
2020-06-29 04:00:00 19.9 5 Nordeste 15 Este -- -- -- 63
2020-06-29 03:00:00 20.9 7 Nordeste 14 Este -- -- -- 59
2020-06-29 02:00:00 22.5 6 Este 13 Norte -- -- -- 52
2020-06-29 01:00:00 22.5 9 Norte 14 Norte -- -- -- 40
2020-06-29 00:00:00 23.5 3 Este 5 Este -- -- -- 38
2020-06-28 23:00:00 25.1 5 Este 8 Este -- -- -- 35
2020-06-28 22:00:00 27.3 5 Norte 9 Noroeste -- -- -- 30
2020-06-28 21:00:00 32.2 5 Noroeste 21 Oeste -- -- -- 22
2020-06-28 20:00:00 33.3 13 Oeste 24 Oeste -- -- -- 20
2020-06-28 19:00:00 33.6 15 Oeste 33 Oeste -- -- -- 21
2020-06-28 18:00:00 34.4 10 Oeste 35 Oeste -- -- -- 21
2020-06-28 17:00:00 33.7 15 Oeste 28 Oeste -- -- -- 22
2020-06-28 16:00:00 33.3 16 Oeste 31 Oeste -- -- -- 24
2020-06-28 15:00:00 32 12 Sudoeste 22 Oeste -- -- -- 27
2020-06-28 14:00:00 31.5 12 Oeste 25 Oeste -- -- -- 27
2020-06-28 13:00:00 30.4 9 Oeste 23 Oeste -- -- -- 30
2020-06-28 12:00:00 28.9 5 Sudoeste 15 Oeste -- -- -- 33
2020-06-28 11:00:00 26.9 4 Oeste 9 Sudoeste -- -- -- 38
2020-06-28 10:00:00 24.7 4 Sudeste 9 Sudeste -- -- -- 43
2020-06-28 09:00:00 21.9 3 Este 7 Este -- -- -- 49
2020-06-28 08:00:00 17.7 3 Nordeste 6 Este -- -- -- 61
2020-06-28 07:00:00 15.7 2 Nordeste 5 Nordeste -- -- -- 69
2020-06-28 06:00:00 16.4 0 Calma 5 Nordeste -- -- -- 66
2020-06-28 05:00:00 17.6 0 Calma 9 Nordeste -- -- -- 63
2020-06-28 04:00:00 18.1 5 Nordeste 9 Nordeste -- -- -- 61
2020-06-28 03:00:00 18.8 5 Nordeste 23 Este -- -- -- 58
2020-06-28 02:00:00 20.9 3 Nordeste 9 Norte -- -- -- 43
2020-06-28 01:00:00 21.5 5 Norte 8 Norte -- -- -- 41
2020-06-28 00:00:00 21.8 5 Norte 13 Norte -- -- -- 41
2020-06-27 23:00:00 22.6 0 Calma 4 Norte -- -- -- 39
2020-06-27 22:00:00 26.1 0 Calma 7 Noroeste -- -- -- 32
2020-06-27 21:00:00 30.7 5 Noroeste 23 Oeste -- -- -- 24
2020-06-27 20:00:00 31.5 8 Oeste 21 Oeste -- -- -- 23
2020-06-27 19:00:00 32.1 12 Oeste 28 Oeste -- -- -- 22
2020-06-27 18:00:00 31.7 13 Oeste 24 Oeste -- -- -- 22
2020-06-27 17:00:00 31.8 12 Noroeste 27 Oeste -- -- -- 23
2020-06-27 16:00:00 31 14 Oeste 30 Oeste -- -- -- 24
2020-06-27 15:00:00 29.8 13 Noroeste 32 Noroeste -- -- -- 26
2020-06-27 14:00:00 28.7 14 Oeste 26 Oeste -- -- -- 27
2020-06-27 13:00:00 27.3 12 Oeste 35 Oeste -- -- -- 28
2020-06-27 12:00:00 25.4 10 Oeste 21 Oeste -- -- -- 33
2020-06-27 11:00:00 24.4 8 Oeste 17 Noroeste -- -- -- 36
2020-06-27 10:00:00 20.6 6 Oeste 14 Oeste -- -- -- 39
2020-06-27 09:00:00 18.2 9 Oeste 15 Oeste -- -- -- 41
2020-06-27 08:00:00 14.8 5 Oeste 13 Oeste -- -- -- 48
2020-06-27 07:00:00 14.3 7 Oeste 14 Oeste -- -- -- 48
2020-06-27 06:00:00 14.8 8 Oeste 12 Oeste -- -- -- 44
2020-06-27 05:00:00 15.3 3 Oeste 6 Sudoeste -- -- -- 39
2020-06-27 04:00:00 16.5 3 Sudoeste 8 Oeste -- -- -- 34
2020-06-27 03:00:00 17.6 4 Sudoeste 10 Noroeste -- -- -- 34
2020-06-27 02:00:00 19.9 6 Noroeste 18 Noroeste -- -- -- 30
2020-06-27 01:00:00 20.6 8 Noroeste 19 Noroeste -- -- -- 28
2020-06-27 00:00:00 22.6 13 Noroeste 24 Noroeste -- -- -- 26
2020-06-26 23:00:00 23.8 12 Noroeste 21 Noroeste -- -- -- 27
2020-06-26 22:00:00 25.2 9 Noroeste 28 Oeste -- -- -- 30
2020-06-26 21:00:00 27.6 14 Oeste 33 Oeste -- -- -- 28
2020-06-26 20:00:00 29.6 20 Oeste 35 Oeste -- -- -- 28
2020-06-26 19:00:00 30.9 23 Oeste 40 Oeste -- -- -- 25
2020-06-26 18:00:00 31.7 11 Oeste 28 Oeste -- -- -- 26
2020-06-26 17:00:00 32 15 Sudoeste 39 Oeste -- -- -- 27
2020-06-26 16:00:00 31.3 7 Sudoeste 26 Sudoeste -- -- -- 29
2020-06-26 15:00:00 28.8 5 Oeste 21 Sudoeste -- -- -- 35
2020-06-26 14:00:00 29.6 10 Sudoeste 23 Oeste -- -- -- 34
2020-06-26 13:00:00 28.3 8 Sur 17 Sudoeste -- -- -- 37
2020-06-26 12:00:00 26.7 8 Sudoeste 15 Sudoeste -- -- -- 40
2020-06-26 11:00:00 25.1 5 Sur 14 Sur -- -- -- 43
2020-06-26 10:00:00 23.2 6 Sur 13 Sudeste -- -- -- 49
2020-06-26 09:00:00 20.9 4 Sudeste 11 Nordeste -- -- -- 54
2020-06-26 08:00:00 17.6 5 Nordeste 9 Nordeste -- -- -- 61
2020-06-26 07:00:00 17.2 4 Este 20 Sudeste -- -- -- 61
2020-06-26 06:00:00 18.3 9 Sudeste 20 Sudeste -- -- -- 56
2020-06-26 05:00:00 19.2 12 Sudeste 25 Sudeste -- -- -- 52
2020-06-26 04:00:00 19.1 12 Sudeste 29 Sudeste -- -- -- 51
2020-06-26 03:00:00 20.2 12 Sudeste 33 Este -- -- -- 46
2020-06-26 02:00:00 20.8 14 Sudeste 28 Sudeste -- -- -- 45
2020-06-26 01:00:00 21.2 10 Sudeste 29 Este -- -- -- 48
2020-06-26 00:00:00 23.1 10 Sudeste 40 Sudeste -- -- -- 43
2020-06-25 23:00:00 25.6 18 Sudeste 37 Sudeste -- -- -- 27
2020-06-25 22:00:00 27 16 Sudeste 33 Sudeste -- -- -- 25
2020-06-25 21:00:00 29.7 17 Sudeste 36 Sudeste -- -- -- 23
2020-06-25 20:00:00 32.2 18 Sur 35 Sudeste -- -- -- 21
2020-06-25 19:00:00 33.6 15 Sudeste 33 Sudeste -- -- -- 20
2020-06-25 18:00:00 34.3 16 Sudeste 33 Sudeste -- -- -- 20
2020-06-25 17:00:00 34.1 14 Sur 34 Sudeste -- -- -- 17
2020-06-25 16:00:00 34 13 Sudeste 32 Sudeste -- -- -- 19
2020-06-25 15:00:00 32.9 13 Sur 32 Sur -- -- -- 21
2020-06-25 14:00:00 31.7 11 Sur 29 Sudeste -- -- -- 24
2020-06-25 13:00:00 30.2 12 Sudeste 30 Sudeste -- -- -- 26
2020-06-25 12:00:00 28.8 12 Sur 27 Sudeste -- -- -- 29
2020-06-25 11:00:00 27.3 10 Sudeste 24 Sudeste -- -- -- 30
2020-06-25 10:00:00 24.3 11 Sudeste 21 Sudeste -- -- -- 39
2020-06-25 09:00:00 21 7 Sudeste 14 Nordeste -- -- -- 53
2020-06-25 08:00:00 17.3 9 Este 17 Este -- -- -- 62
2020-06-25 07:00:00 16.3 9 Este 18 Nordeste -- -- -- 65
2020-06-25 06:00:00 16.3 9 Este 21 Este -- -- -- 73
2020-06-25 05:00:00 16.8 8 Nordeste 24 Este -- -- -- 76
2020-06-25 04:00:00 17.7 11 Este 22 Este -- -- -- 72
2020-06-25 03:00:00 18.5 9 Este 18 Este -- -- -- 68
2020-06-25 02:00:00 20 7 Este 17 Sudeste -- -- -- 65
2020-06-25 01:00:00 20.5 5 Este 14 Este -- -- -- 65
2020-06-25 00:00:00 21.4 7 Este 13 Nordeste -- -- -- 59
2020-06-24 23:00:00 23 5 Este 10 Sudeste -- -- -- 45
2020-06-24 22:00:00 25.1 5 Sudeste 13 Este -- -- -- 38
2020-06-24 21:00:00 28.8 6 Este 19 Sudeste -- -- -- 31
2020-06-24 20:00:00 31.3 8 Este 21 Sudeste -- -- -- 28
2020-06-24 19:00:00 30.3 7 Este 25 Sudeste -- -- -- 28
2020-06-24 18:00:00 31.4 10 Este 25 Este -- -- -- 25
2020-06-24 17:00:00 29.4 13 Este 36 Nordeste -- -- -- 30
2020-06-24 16:00:00 27.9 20 Nordeste 35 Nordeste -- -- -- 33
2020-06-24 15:00:00 27.7 15 Nordeste 27 Nordeste -- -- -- 35
2020-06-24 14:00:00 27.9 0 Calma 12 Sudeste -- -- -- 34
2020-06-24 13:00:00 28.3 6 Sudeste 15 Sudeste -- -- -- 34
2020-06-24 12:00:00 26.8 6 Sudeste 14 Sudeste -- -- -- 37
2020-06-24 11:00:00 24.7 7 Sur 19 Sudeste -- -- -- 42
2020-06-24 10:00:00 23.8 10 Sudeste 27 Sudeste -- -- -- 43
2020-06-24 09:00:00 22 12 Sur 26 Sudoeste -- -- -- 47
2020-06-24 08:00:00 19 11 Este 19 Este -- -- -- 58
2020-06-24 07:00:00 17.3 8 Nordeste 22 Este -- -- -- 66
2020-06-24 06:00:00 17.9 14 Este 27 Nordeste -- -- -- 63
2020-06-24 05:00:00 17.3 17 Nordeste 27 Nordeste -- -- -- 66
2020-06-24 04:00:00 18.3 10 Este 19 Este -- -- -- 65
2020-06-24 03:00:00 18.6 10 Este 23 Nordeste -- -- -- 65
2020-06-24 02:00:00 19.5 12 Este 19 Nordeste -- -- -- 65
2020-06-24 01:00:00 21.8 8 Este 23 Sudeste -- -- -- 58
2020-06-24 00:00:00 23.6 10 Sudeste 30 Sudeste -- -- -- 45
2020-06-23 23:00:00 25 13 Sudeste 27 Sudeste -- -- -- 42
2020-06-23 22:00:00 27 12 Sudeste 24 Sur -- -- -- 35
2020-06-23 21:00:00 30.4 15 Sudeste 30 Sur -- -- -- 27
2020-06-23 20:00:00 33.7 12 Sudeste 25 Sudeste -- -- -- 21
2020-06-23 19:00:00 34.8 5 Sudeste 29 Sudeste -- -- -- 18
2020-06-23 18:00:00 35.1 8 Sudeste 23 Sudeste -- -- -- 19
2020-06-23 17:00:00 34.6 13 Sudeste 27 Sudeste -- -- -- 20
2020-06-23 16:00:00 34.2 11 Sudeste 26 Este -- -- -- 22
2020-06-23 15:00:00 32.7 13 Sudeste 24 Sudeste -- -- -- 24
2020-06-23 14:00:00 31.6 13 Sudeste 28 Sudeste -- -- -- 25
2020-06-23 13:00:00 29.6 14 Sudeste 27 Sudeste -- -- -- 29
2020-06-23 12:00:00 27.6 12 Sudeste 28 Sudeste -- -- -- 34
2020-06-23 11:00:00 25.2 11 Sudeste 23 Sudeste -- -- -- 40
2020-06-23 10:00:00 22.9 12 Sudeste 24 Sudeste -- -- -- 43
2020-06-23 09:00:00 20.9 10 Sudeste 27 Este -- -- -- 49
2020-06-23 08:00:00 18.6 7 Este 22 Este -- -- -- 55
2020-06-23 07:00:00 16.1 4 Este 14 Este -- -- -- 66
2020-06-23 06:00:00 16.3 3 Este 19 Este -- -- -- 68
2020-06-23 05:00:00 17.4 12 Este 20 Este -- -- -- 64
2020-06-23 04:00:00 17.8 9 Nordeste 23 Este -- -- -- 64
2020-06-23 03:00:00 18.9 15 Este 31 Este -- -- -- 62
2020-06-23 02:00:00 19.7 16 Este 28 Nordeste -- -- -- 61
2020-06-23 01:00:00 20.4 9 Nordeste 21 Este -- -- -- 53
2020-06-23 00:00:00 21.8 8 Este 25 Sudeste -- -- -- 48
2020-06-22 23:00:00 23.9 9 Sudeste 28 Sudeste -- -- -- 42
2020-06-22 22:00:00 26.5 12 Sur 26 Sudeste -- -- -- 37
2020-06-22 21:00:00 30.5 15 Sur 30 Sudeste -- -- -- 30
2020-06-22 20:00:00 33.4 8 Sur 19 Sudeste -- -- -- 20
2020-06-22 19:00:00 34 6 Este 15 Este -- -- -- 19
2020-06-22 18:00:00 34.4 6 Este 19 Sudeste -- -- -- 20
2020-06-22 17:00:00 34.1 4 Sudoeste 21 Sur -- -- -- 19
2020-06-22 16:00:00 33.5 7 Sudeste 20 Sudeste -- -- -- 21
2020-06-22 15:00:00 32.6 9 Sur 23 Sudeste -- -- -- 21
2020-06-22 14:00:00 31.7 8 Sudeste 23 Sudeste -- -- -- 28
2020-06-22 13:00:00 30.2 12 Sudeste 25 Sudeste -- -- -- 29
2020-06-22 12:00:00 28.7 12 Sudeste 27 Sudeste -- -- -- 31
2020-06-22 11:00:00 27 13 Sudeste 26 Sudeste -- -- -- 34
2020-06-22 10:00:00 25.5 12 Sudeste 24 Este -- -- -- 36
2020-06-22 09:00:00 22.3 11 Este 22 Este -- -- -- 45
2020-06-22 08:00:00 18.6 12 Este 18 Nordeste -- -- -- 54
2020-06-22 07:00:00 16.1 0 Calma 13 Este -- -- -- 67
2020-06-22 06:00:00 17.4 6 Este 13 Este -- -- -- 64
2020-06-22 05:00:00 18.4 9 Este 19 Este -- -- -- 65
2020-06-22 04:00:00 18.3 6 Nordeste 17 Nordeste -- -- -- 67
2020-06-22 03:00:00 19 7 Este 21 Nordeste -- -- -- 63
2020-06-22 02:00:00 19.8 8 Este 18 Este -- -- -- 60
2020-06-22 01:00:00 21.1 10 Este 18 Este -- -- -- 47
2020-06-22 00:00:00 21.3 6 Norte 9 Norte -- -- -- 30
2020-06-21 23:00:00 22.1 5 Norte 9 Norte -- -- -- 28
2020-06-21 22:00:00 25.5 6 Norte 9 Norte -- -- -- 27
2020-06-21 21:00:00 31.8 4 Noroeste 15 Noroeste -- -- -- 18
2020-06-21 20:00:00 33.2 9 Noroeste 24 Oeste -- -- -- 16
2020-06-21 19:00:00 33.8 8 Noroeste 22 Noroeste -- -- -- 15
2020-06-21 18:00:00 33.5 13 Oeste 31 Oeste -- -- -- 16
2020-06-21 17:00:00 33.4 12 Noroeste 36 Oeste -- -- -- 16
2020-06-21 16:00:00 32.8 13 Oeste 29 Oeste -- -- -- 17
2020-06-21 15:00:00 32 12 Noroeste 28 Oeste -- -- -- 18
2020-06-21 14:00:00 31.1 12 Oeste 28 Oeste -- -- -- 19
2020-06-21 13:00:00 30.3 7 Oeste 23 Norte -- -- -- 23
2020-06-21 12:00:00 28.5 8 Oeste 17 Oeste -- -- -- 26
2020-06-21 11:00:00 25.9 8 Sudoeste 13 Sudoeste -- -- -- 30
2020-06-21 10:00:00 22.8 5 Sudoeste 10 Oeste -- -- -- 36
2020-06-21 09:00:00 20.1 3 Sudoeste 5 Sudoeste -- -- -- 40
2020-06-21 08:00:00 15.7 2 Este 5 Este -- -- -- 48
2020-06-21 07:00:00 13.2 0 Calma 7 Nordeste -- -- -- 58
2020-06-21 06:00:00 14.2 0 Calma 4 Oeste -- -- -- 48
2020-06-21 05:00:00 15.9 0 Calma 15 Sudoeste -- -- -- 47
2020-06-21 04:00:00 20.5 10 Noroeste 16 Noroeste -- -- -- 35
2020-06-21 03:00:00 21 9 Noroeste 17 Noroeste -- -- -- 32
2020-06-21 02:00:00 21.4 9 Noroeste 14 Noroeste -- -- -- 30
2020-06-21 01:00:00 21.9 8 Noroeste 14 Noroeste -- -- -- 28
2020-06-21 00:00:00 22.7 9 Noroeste 15 Noroeste -- -- -- 26
2020-06-20 23:00:00 23.5 8 Noroeste 12 Noroeste -- -- -- 26
2020-06-20 22:00:00 25 5 Noroeste 13 Noroeste -- -- -- 25
2020-06-20 21:00:00 29.5 8 Noroeste 24 Oeste -- -- -- 18
2020-06-20 20:00:00 31.4 12 Oeste 28 Oeste -- -- -- 16
2020-06-20 19:00:00 31.6 8 Sudoeste 30 Oeste -- -- -- 18
2020-06-20 18:00:00 31.4 9 Oeste 28 Oeste -- -- -- 18
2020-06-20 17:00:00 31.4 13 Oeste 35 Oeste -- -- -- 18
2020-06-20 16:00:00 30.4 10 Oeste 27 Noroeste -- -- -- 22
2020-06-20 15:00:00 29.7 18 Oeste 31 Oeste -- -- -- 21
2020-06-20 14:00:00 28.6 10 Sudoeste 34 Oeste -- -- -- 24
2020-06-20 13:00:00 27.8 11 Oeste 32 Oeste -- -- -- 26
2020-06-20 12:00:00 26.3 9 Oeste 20 Oeste -- -- -- 26
2020-06-20 11:00:00 24 10 Oeste 18 Oeste -- -- -- 34
2020-06-20 10:00:00 21 7 Sudoeste 13 Sudoeste -- -- -- 46
2020-06-20 09:00:00 18.3 5 Sur 10 Sur -- -- -- 64
2020-06-20 08:00:00 14.6 2 Nordeste 5 Este -- -- -- 96
2020-06-20 07:00:00 13.6 3 Nordeste 6 Nordeste -- -- -- 95
2020-06-20 06:00:00 14.2 5 Nordeste 8 Nordeste -- -- -- 94
2020-06-20 05:00:00 14.7 0 Calma 6 Este -- -- -- 90
2020-06-20 04:00:00 15.2 2 Nordeste 12 Nordeste -- -- -- 86
2020-06-20 03:00:00 16.4 3 Nordeste 9 Nordeste -- -- -- 78
2020-06-20 02:00:00 18.3 6 Nordeste 11 Este -- -- -- 69
2020-06-20 01:00:00 19.4 5 Este 12 Nordeste -- -- -- 48
2020-06-20 00:00:00 20.9 8 Noroeste 15 Noroeste -- -- -- 31
2020-06-19 23:00:00 21.7 8 Noroeste 12 Oeste -- -- -- 31
2020-06-19 22:00:00 22.6 5 Oeste 16 Oeste -- -- -- 33
2020-06-19 21:00:00 26.2 9 Oeste 24 Oeste -- -- -- 27
2020-06-19 20:00:00 28.3 15 Oeste 28 Oeste -- -- -- 23
2020-06-19 19:00:00 29 14 Oeste 28 Oeste -- -- -- 23
2020-06-19 18:00:00 28.9 13 Oeste 32 Oeste -- -- -- 24
2020-06-19 17:00:00 29.5 13 Oeste 34 Oeste -- -- -- 23
2020-06-19 16:00:00 29.6 15 Oeste 34 Sudoeste -- -- -- 24
2020-06-19 15:00:00 28.1 10 Sudoeste 39 Sudoeste -- -- -- 26
2020-06-19 14:00:00 27.5 12 Oeste 27 Oeste -- -- -- 28
2020-06-19 13:00:00 25.5 7 Sur 20 Sudoeste -- -- -- 32
2020-06-19 12:00:00 23.9 6 Sudoeste 14 Sudoeste -- -- -- 37
2020-06-19 11:00:00 21.9 6 Sur 17 Sudeste -- -- -- 43
2020-06-19 10:00:00 20.1 8 Sur 21 Sudeste -- -- -- 56
2020-06-19 09:00:00 18.1 11 Sudeste 25 Sudeste -- -- -- 79
2020-06-19 08:00:00 15.9 5 Sudeste 10 Este -- -- -- 90
2020-06-19 07:00:00 15.3 5 Este 11 Este -- -- -- 92
2020-06-19 06:00:00 15.5 4 Este 13 Este -- -- -- 91
2020-06-19 05:00:00 15.6 3 Este 13 Este -- -- -- 90
2020-06-19 04:00:00 15.9 7 Este 15 Este -- -- -- 90
2020-06-19 03:00:00 15.3 8 Este 18 Nordeste -- -- -- 91
2020-06-19 02:00:00 15.6 7 Nordeste 14 Este -- -- -- 88
2020-06-19 01:00:00 17.9 8 Este 26 Sudeste -- -- -- 79
2020-06-19 00:00:00 19.1 6 Este 24 Sudeste -- -- -- 74
2020-06-18 23:00:00 19.7 9 Este 23 Sudeste -- -- -- 57
2020-06-18 22:00:00 20.5 3 Noroeste 7 Noroeste -- -- -- 37
2020-06-18 21:00:00 24.2 6 Noroeste 17 Oeste -- -- -- 29
2020-06-18 20:00:00 27.9 13 Oeste 30 Noroeste -- -- -- 23
2020-06-18 19:00:00 28.1 18 Oeste 28 Sudoeste -- -- -- 22
2020-06-18 18:00:00 27.9 17 Sudoeste 32 Sudoeste -- -- -- 22
2020-06-18 17:00:00 28.2 13 Oeste 32 Oeste -- -- -- 23
2020-06-18 16:00:00 27.1 12 Oeste 33 Oeste -- -- -- 26
2020-06-18 15:00:00 25.7 10 Sudoeste 26 Oeste -- -- -- 26
2020-06-18 14:00:00 25.2 12 Oeste 23 Oeste -- -- -- 29
2020-06-18 13:00:00 23.9 12 Oeste 24 Oeste -- -- -- 33
2020-06-18 12:00:00 22.1 8 Sudoeste 15 Sur -- -- -- 38
2020-06-18 11:00:00 20.9 3 Sudeste 11 Sudeste -- -- -- 49
2020-06-18 10:00:00 18.8 5 Sudeste 12 Sudeste -- -- -- 65
2020-06-18 09:00:00 15.5 5 Este 13 Nordeste -- -- -- 87
2020-06-18 08:00:00 13.6 6 Este 12 Este -- -- -- 97
2020-06-18 07:00:00 13.2 3 Este 9 Sudeste -- -- -- 97
2020-06-18 06:00:00 12.1 0 Calma 5 Norte -- -- -- 94
2020-06-18 05:00:00 13.1 4 Este 7 Nordeste -- -- -- 93
2020-06-18 04:00:00 13.8 3 Este 8 Nordeste -- -- -- 92
2020-06-18 03:00:00 14.6 2 Este 9 Nordeste -- -- -- 89
2020-06-18 02:00:00 15.3 3 Sudeste 19 Sudeste -- -- -- 87
2020-06-18 01:00:00 16.4 7 Sudeste 17 Este -- -- -- 71
2020-06-18 00:00:00 17.3 8 Oeste 12 Oeste -- -- -- 37
2020-06-17 23:00:00 18.3 6 Oeste 15 Oeste -- -- -- 37
2020-06-17 22:00:00 20.3 9 Oeste 17 Sudoeste -- -- -- 34
2020-06-17 21:00:00 23.6 7 Sudoeste 13 Oeste -- -- -- 28
2020-06-17 20:00:00 23.8 10 Oeste 19 Oeste -- -- -- 29
2020-06-17 19:00:00 24.7 8 Noroeste 26 Oeste -- -- -- 28
2020-06-17 18:00:00 24.4 5 Oeste 28 Oeste -- -- -- 28
2020-06-17 17:00:00 25.4 13 Oeste 31 Oeste -- -- -- 27
2020-06-17 16:00:00 25 15 Oeste 36 Oeste -- -- -- 27
2020-06-17 15:00:00 22.9 17 Oeste 32 Oeste -- -- -- 33
2020-06-17 14:00:00 22.6 17 Oeste 35 Oeste -- -- -- 36
2020-06-17 13:00:00 21.5 11 Oeste 23 Oeste -- -- -- 40
2020-06-17 12:00:00 20.8 13 Oeste 24 Oeste -- -- -- 41
2020-06-17 11:00:00 19.5 10 Oeste 20 Oeste -- -- -- 44
2020-06-17 10:00:00 17.4 7 Oeste 12 Oeste -- -- -- 52
2020-06-17 09:00:00 14.9 7 Sudoeste 11 Sudoeste -- -- -- 64
2020-06-17 08:00:00 12 4 Oeste 7 Oeste -- -- -- 78
2020-06-17 07:00:00 9.5 0 Calma 2 Sudoeste -- -- -- 84
2020-06-17 06:00:00 10.8 0 Calma 5 Sudoeste -- -- -- 81
2020-06-17 05:00:00 11.8 0 Calma 5 Noroeste -- -- -- 77
2020-06-17 04:00:00 12.9 0 Calma 5 Sudoeste -- -- -- 73
2020-06-17 03:00:00 14 0 Calma 9 Norte -- -- -- 68
2020-06-17 02:00:00 15.7 5 Norte 10 Norte -- -- -- 60
2020-06-17 01:00:00 14.9 4 Norte 13 Norte -- -- -- 65
2020-06-17 00:00:00 15.9 13 Norte 21 Norte -- -- -- 60
2020-06-16 23:00:00 17.2 6 Norte 27 Norte -- -- -- 54
2020-06-16 22:00:00 20.3 9 Noroeste 27 Oeste -- -- -- 38
2020-06-16 21:00:00 22.9 20 Oeste 34 Oeste -- -- -- 31
2020-06-16 20:00:00 25.1 21 Noroeste 37 Oeste -- -- -- 27
2020-06-16 19:00:00 26.4 21 Oeste 38 Oeste -- -- -- 26
2020-06-16 18:00:00 26.6 19 Noroeste 37 Noroeste -- -- -- 27
2020-06-16 17:00:00 25.9 18 Noroeste 37 Oeste -- -- -- 30
2020-06-16 16:00:00 25.5 22 Noroeste 40 Oeste -- -- -- 32
2020-06-16 15:00:00 25.5 19 Noroeste 39 Oeste -- -- -- 33
2020-06-16 14:00:00 24 22 Oeste 38 Oeste -- -- -- 35
2020-06-16 13:00:00 22.9 23 Oeste 34 Oeste -- -- -- 37
2020-06-16 12:00:00 22.3 19 Oeste 31 Oeste -- -- -- 40
2020-06-16 11:00:00 21.3 16 Oeste 30 Oeste -- -- -- 44
2020-06-16 10:00:00 19.6 10 Oeste 19 Oeste -- -- -- 49
2020-06-16 09:00:00 16.8 6 Sudoeste 12 Sudoeste -- -- -- 54
2020-06-16 08:00:00 12.4 5 Sudoeste 9 Sudoeste -- -- -- 59
2020-06-16 07:00:00 10.3 0 Calma 2 Norte -- -- -- 67
2020-06-16 06:00:00 11.9 0 Calma 5 Oeste -- -- -- 56
2020-06-16 05:00:00 13.5 5 Oeste 11 Sudoeste -- -- -- 47
2020-06-16 04:00:00 15.1 6 Sudoeste 12 Oeste -- -- -- 43
2020-06-16 03:00:00 15.8 8 Oeste 14 Oeste -- -- -- 40
2020-06-16 02:00:00 17 9 Oeste 16 Noroeste -- -- -- 37
2020-06-16 01:00:00 18.9 10 Noroeste 18 Noroeste -- -- -- 29
2020-06-16 00:00:00 19 11 Noroeste 20 Oeste -- -- -- 30
2020-06-15 23:00:00 19.3 12 Noroeste 18 Noroeste -- -- -- 31
2020-06-15 22:00:00 20.3 10 Oeste 22 Noroeste -- -- -- 31
2020-06-15 21:00:00 24.3 14 Oeste 28 Oeste -- -- -- 24
2020-06-15 20:00:00 26.5 18 Oeste 36 Oeste -- -- -- 22
2020-06-15 19:00:00 26.9 15 Oeste 38 Oeste -- -- -- 22
2020-06-15 18:00:00 27.2 22 Oeste 41 Oeste -- -- -- 22
2020-06-15 17:00:00 26.7 20 Oeste 35 Oeste -- -- -- 24
2020-06-15 16:00:00 26 19 Oeste 38 Oeste -- -- -- 23
2020-06-15 15:00:00 25.7 19 Oeste 36 Oeste -- -- -- 24
2020-06-15 14:00:00 24.9 19 Oeste 35 Oeste -- -- -- 27
2020-06-15 13:00:00 23.2 19 Oeste 35 Oeste -- -- -- 32
2020-06-15 12:00:00 21.9 15 Oeste 24 Oeste -- -- -- 38
2020-06-15 11:00:00 19.9 12 Oeste 22 Oeste -- -- -- 43
2020-06-15 10:00:00 17.5 11 Oeste 19 Oeste -- -- -- 48
2020-06-15 09:00:00 15 9 Sudoeste 18 Sudoeste -- -- -- 52
2020-06-15 08:00:00 11.9 8 Oeste 12 Oeste -- -- -- 59
2020-06-15 07:00:00 10.4 6 Sudoeste 10 Sudoeste -- -- -- 61
2020-06-15 06:00:00 10.9 5 Sudoeste 11 Oeste -- -- -- 60
2020-06-15 05:00:00 11.6 7 Oeste 10 Oeste -- -- -- 59
2020-06-15 04:00:00 12.6 4 Sudoeste 8 Sudoeste -- -- -- 60
2020-06-15 03:00:00 14.4 4 Oeste 12 Noroeste -- -- -- 55
2020-06-15 02:00:00 15.5 7 Noroeste 15 Noroeste -- -- -- 49
2020-06-15 01:00:00 15.8 9 Noroeste 13 Noroeste -- -- -- 47
2020-06-15 00:00:00 17 5 Noroeste 10 Noroeste -- -- -- 43
2020-06-14 23:00:00 17.9 5 Norte 11 Norte -- -- -- 44
2020-06-14 22:00:00 19.4 7 Noroeste 14 Oeste -- -- -- 41
2020-06-14 21:00:00 23.6 12 Oeste 24 Oeste -- -- -- 30
2020-06-14 20:00:00 25.3 15 Noroeste 28 Oeste -- -- -- 26
2020-06-14 19:00:00 26 14 Noroeste 37 Oeste -- -- -- 26
2020-06-14 18:00:00 26 20 Oeste 36 Oeste -- -- -- 26
2020-06-14 17:00:00 25.3 18 Oeste 43 Oeste -- -- -- 29
2020-06-14 16:00:00 24.6 14 Oeste 32 Oeste -- -- -- 30
2020-06-14 15:00:00 23.4 17 Oeste 38 Oeste -- -- -- 33
2020-06-14 14:00:00 22.7 18 Oeste 32 Oeste -- -- -- 34
2020-06-14 13:00:00 22 15 Oeste 31 Oeste -- -- -- 35
2020-06-14 12:00:00 21.2 13 Oeste 45 Sudoeste -- -- -- 38
2020-06-14 11:00:00 19.5 6 Oeste 15 Noroeste -- -- -- 45
2020-06-14 10:00:00 17.5 6 Oeste 12 Noroeste -- -- -- 49
2020-06-14 09:00:00 14.6 0 Calma 3 Sudoeste -- -- -- 58
2020-06-14 08:00:00 11.2 0 Calma 4 Noroeste -- -- -- 71
2020-06-14 07:00:00 10.3 2 Noroeste 5 Norte -- -- -- 71
2020-06-14 06:00:00 10.5 0 Calma 5 Sudeste -- -- -- 72
2020-06-14 05:00:00 11.3 0 Calma 6 Norte -- -- -- 64
2020-06-14 04:00:00 11.8 3 Nordeste 7 Norte -- -- -- 62
2020-06-14 03:00:00 12.2 2 Nordeste 7 Norte -- -- -- 60
2020-06-14 02:00:00 13.9 6 Norte 14 Norte -- -- -- 53
2020-06-14 01:00:00 14.4 7 Noroeste 13 Norte -- -- -- 52
2020-06-14 00:00:00 15.2 7 Noroeste 13 Norte -- -- -- 50
2020-06-13 23:00:00 15.9 8 Oeste 16 Oeste -- -- -- 49
2020-06-13 22:00:00 17.3 5 Oeste 8 Oeste -- -- -- 45
2020-06-13 21:00:00 21 5 Oeste 22 Oeste -- -- -- 35
2020-06-13 20:00:00 22.3 7 Oeste 28 Noroeste -- -- -- 32
2020-06-13 19:00:00 22.5 6 Sudoeste 23 Noroeste -- -- -- 31
2020-06-13 18:00:00 22.6 9 Oeste 27 Oeste -- -- -- 32
2020-06-13 17:00:00 21.5 11 Oeste 28 Oeste -- -- -- 32
2020-06-13 16:00:00 21.7 13 Oeste 33 Oeste -- -- -- 34
2020-06-13 15:00:00 20.5 13 Noroeste 31 Oeste -- -- -- 37
2020-06-13 14:00:00 20.1 13 Noroeste 35 Noroeste -- -- -- 40
2020-06-13 13:00:00 18.5 14 Noroeste 28 Oeste -- -- -- 46
2020-06-13 12:00:00 16.4 13 Noroeste 27 Oeste -- -- -- 53
2020-06-13 11:00:00 15.3 14 Noroeste 32 Oeste -- -- -- 56
2020-06-13 10:00:00 13.9 13 Oeste 26 Oeste -- -- -- 63
2020-06-13 09:00:00 11.2 8 Oeste 12 Oeste -- -- -- 77
2020-06-13 08:00:00 8.7 2 Noroeste 6 Nordeste -- -- -- 86
2020-06-13 07:00:00 7.5 2 Norte 6 Oeste -- -- -- 89
2020-06-13 06:00:00 7.9 4 Oeste 9 Oeste -- -- -- 86
2020-06-13 05:00:00 8.5 7 Oeste 15 Oeste -- -- -- 85
2020-06-13 04:00:00 8.9 9 Oeste 13 Oeste -- -- -- 84
2020-06-13 03:00:00 9.4 4 Oeste 7 Oeste -- -- -- 80
2020-06-13 02:00:00 10.8 6 Noroeste 22 Noroeste -- -- -- 72
2020-06-13 01:00:00 11.9 16 Noroeste 39 Noroeste -- -- -- 68
2020-06-13 00:00:00 12.6 5 Oeste 12 Oeste -- -- -- 58
2020-06-12 23:00:00 14.9 8 Oeste 27 Oeste -- -- -- 49
2020-06-12 22:00:00 16.1 14 Oeste 28 Oeste -- -- -- 45
2020-06-12 21:00:00 16.9 17 Oeste 32 Oeste -- -- -- 42
2020-06-12 20:00:00 17.7 19 Oeste 35 Oeste -- -- -- 38
2020-06-12 19:00:00 18.5 19 Oeste 40 Oeste -- -- -- 37
2020-06-12 18:00:00 18.5 24 Oeste 51 Oeste -- -- -- 37
2020-06-12 17:00:00 18.5 28 Oeste 49 Oeste -- -- -- 37
2020-06-12 16:00:00 19.5 26 Oeste 47 Oeste -- -- -- 36
2020-06-12 15:00:00 18.6 24 Oeste 44 Oeste -- -- -- 38
2020-06-12 14:00:00 17.1 24 Oeste 38 Oeste -- -- -- 42
2020-06-12 13:00:00 16.4 23 Oeste 37 Oeste -- -- -- 45
2020-06-12 12:00:00 15.3 24 Oeste 39 Oeste -- -- -- 46
2020-06-12 11:00:00 13.5 22 Oeste 39 Oeste -- -- -- 50
2020-06-12 10:00:00 12.5 23 Oeste 39 Noroeste -- -- -- 55
2020-06-12 09:00:00 11.5 22 Oeste 39 Oeste -- -- -- 58
2020-06-12 08:00:00 10.4 19 Oeste 35 Oeste -- -- -- 63
2020-06-12 07:00:00 10.7 16 Oeste 39 Oeste -- -- -- 65
2020-06-12 06:00:00 11.4 17 Oeste 29 Oeste -- -- -- 64
2020-06-12 05:00:00 12.6 18 Oeste 43 Oeste -- -- -- 62
2020-06-12 04:00:00 13.3 27 Oeste 49 Oeste -- -- -- 60
2020-06-12 03:00:00 14 20 Oeste 45 Oeste -- -- -- 63
2020-06-12 02:00:00 15.1 24 Oeste 43 Oeste -- -- -- 65
2020-06-12 01:00:00 15.3 17 Oeste 38 Oeste -- -- -- 63
2020-06-12 00:00:00 15.9 21 Oeste 40 Oeste -- -- -- 55